sensor_id;sensor_type;location;lat;lon;timestamp;pressure;altitude;pressure_sealevel;temperature;humidity
8320;BME280;4197;42.130;24.746;2023-06-05T00:00:38;99964.16;;;15.90;100.00
8320;BME280;4197;42.130;24.746;2023-06-05T00:03:06;99968.03;;;15.86;100.00
8320;BME280;4197;42.130;24.746;2023-06-05T00:05:34;99971.13;;;15.84;100.00
8320;BME280;4197;42.130;24.746;2023-06-05T00:08:03;99972.69;;;15.85;100.00
8320;BME280;4197;42.130;24.746;2023-06-05T00:10:31;99956.16;;;15.71;100.00
8320;BME280;4197;42.130;24.746;2023-06-05T00:13:00;99954.25;;;15.71;100.00
8320;BME280;4197;42.130;24.746;2023-06-05T00:15:29;99960.94;;;15.81;100.00
8320;BME280;4197;42.130;24.746;2023-06-05T00:18:00;99961.25;;;15.69;100.00
8320;BME280;4197;42.130;24.746;2023-06-05T00:20:29;99959.69;;;15.71;100.00
8320;BME280;4197;42.130;24.746;2023-06-05T00:22:57;99961.56;;;15.67;100.00
8320;BME280;4197;42.130;24.746;2023-06-05T00:25:26;99953.72;;;15.66;100.00
8320;BME280;4197;42.130;24.746;2023-06-05T00:27:54;99959.47;;;15.53;100.00
8320;BME280;4197;42.130;24.746;2023-06-05T00:30:23;99964.16;;;15.53;100.00
8320;BME280;4197;42.130;24.746;2023-06-05T00:32:51;99955.50;;;15.44;100.00
8320;BME280;4197;42.130;24.746;2023-06-05T00:35:20;99963.78;;;15.54;100.00
8320;BME280;4197;42.130;24.746;2023-06-05T00:37:48;99965.38;;;15.55;100.00
8320;BME280;4197;42.130;24.746;2023-06-05T00:40:16;99962.56;;;15.52;100.00
8320;BME280;4197;42.130;24.746;2023-06-05T00:42:44;99958.78;;;15.26;100.00
8320;BME280;4197;42.130;24.746;2023-06-05T00:45:13;99950.00;;;15.10;100.00
8320;BME280;4197;42.130;24.746;2023-06-05T00:47:42;99952.41;;;15.15;100.00
8320;BME280;4197;42.130;24.746;2023-06-05T00:50:12;99949.78;;;15.22;100.00
8320;BME280;4197;42.130;24.746;2023-06-05T00:52:41;99950.22;;;15.28;100.00
8320;BME280;4197;42.130;24.746;2023-06-05T00:55:10;99950.28;;;15.35;100.00
8320;BME280;4197;42.130;24.746;2023-06-05T00:57:39;99948.81;;;15.41;100.00
8320;BME280;4197;42.130;24.746;2023-06-05T01:00:09;99947.97;;;15.37;100.00
8320;BME280;4197;42.130;24.746;2023-06-05T01:02:39;99956.97;;;15.37;100.00
8320;BME280;4197;42.130;24.746;2023-06-05T01:05:09;99961.28;;;15.38;100.00
8320;BME280;4197;42.130;24.746;2023-06-05T01:07:38;99955.03;;;15.38;100.00
8320;BME280;4197;42.130;24.746;2023-06-05T01:10:07;99955.84;;;15.42;100.00
8320;BME280;4197;42.130;24.746;2023-06-05T01:12:40;99957.84;;;15.49;100.00
8320;BME280;4197;42.130;24.746;2023-06-05T01:15:11;99961.81;;;15.17;100.00
8320;BME280;4197;42.130;24.746;2023-06-05T01:17:40;99968.59;;;14.97;100.00
8320;BME280;4197;42.130;24.746;2023-06-05T01:20:11;99964.22;;;14.92;100.00
8320;BME280;4197;42.130;24.746;2023-06-05T01:22:39;99961.34;;;14.82;100.00
8320;BME280;4197;42.130;24.746;2023-06-05T01:25:09;99960.94;;;14.80;100.00
8320;BME280;4197;42.130;24.746;2023-06-05T01:27:43;99962.06;;;14.75;100.00
8320;BME280;4197;42.130;24.746;2023-06-05T01:30:16;99964.94;;;14.59;100.00
8320;BME280;4197;42.130;24.746;2023-06-05T01:32:49;99966.84;;;14.55;100.00
8320;BME280;4197;42.130;24.746;2023-06-05T01:35:22;99972.66;;;14.54;100.00
8320;BME280;4197;42.130;24.746;2023-06-05T01:37:56;99970.41;;;14.59;100.00
8320;BME280;4197;42.130;24.746;2023-06-05T01:40:28;99966.63;;;14.67;100.00
8320;BME280;4197;42.130;24.746;2023-06-05T01:42:59;99971.47;;;14.78;100.00
8320;BME280;4197;42.130;24.746;2023-06-05T01:45:28;99972.94;;;14.71;100.00
8320;BME280;4197;42.130;24.746;2023-06-05T01:47:58;99970.09;;;14.64;100.00
8320;BME280;4197;42.130;24.746;2023-06-05T01:50:26;99978.72;;;14.66;100.00
8320;BME280;4197;42.130;24.746;2023-06-05T01:52:54;99984.38;;;14.81;100.00
8320;BME280;4197;42.130;24.746;2023-06-05T01:55:23;99987.00;;;15.04;100.00
8320;BME280;4197;42.130;24.746;2023-06-05T01:57:55;99990.50;;;15.04;100.00
8320;BME280;4197;42.130;24.746;2023-06-05T02:00:24;99992.75;;;14.95;100.00
8320;BME280;4197;42.130;24.746;2023-06-05T02:02:52;99991.78;;;14.80;100.00
8320;BME280;4197;42.130;24.746;2023-06-05T02:05:20;99999.44;;;14.71;100.00
8320;BME280;4197;42.130;24.746;2023-06-05T02:07:49;99993.72;;;14.53;100.00
8320;BME280;4197;42.130;24.746;2023-06-05T02:10:21;99995.72;;;14.56;100.00
8320;BME280;4197;42.130;24.746;2023-06-05T02:12:51;99997.59;;;14.52;100.00
8320;BME280;4197;42.130;24.746;2023-06-05T02:15:21;99993.72;;;14.53;100.00
8320;BME280;4197;42.130;24.746;2023-06-05T02:17:50;99999.44;;;14.48;100.00
8320;BME280;4197;42.130;24.746;2023-06-05T02:20:24;100004.75;;;14.37;100.00
8320;BME280;4197;42.130;24.746;2023-06-05T02:22:53;100001.97;;;14.34;100.00
8320;BME280;4197;42.130;24.746;2023-06-05T02:25:22;100010.56;;;14.36;100.00
8320;BME280;4197;42.130;24.746;2023-06-05T02:27:53;100008.56;;;14.33;100.00
8320;BME280;4197;42.130;24.746;2023-06-05T02:30:23;100011.28;;;14.33;100.00
8320;BME280;4197;42.130;24.746;2023-06-05T02:32:51;100009.75;;;14.35;100.00
8320;BME280;4197;42.130;24.746;2023-06-05T02:35:24;100010.56;;;14.36;100.00
8320;BME280;4197;42.130;24.746;2023-06-05T02:37:52;99996.50;;;14.34;100.00
8320;BME280;4197;42.130;24.746;2023-06-05T02:40:20;99996.81;;;14.28;100.00
8320;BME280;4197;42.130;24.746;2023-06-05T02:42:51;99987.84;;;14.28;100.00
8320;BME280;4197;42.130;24.746;2023-06-05T02:45:20;99981.59;;;14.27;100.00
8320;BME280;4197;42.130;24.746;2023-06-05T02:47:49;99990.09;;;14.22;100.00
8320;BME280;4197;42.130;24.746;2023-06-05T02:50:18;99986.94;;;14.20;100.00
8320;BME280;4197;42.130;24.746;2023-06-05T02:52:46;99994.69;;;14.18;100.00
8320;BME280;4197;42.130;24.746;2023-06-05T02:55:14;99990.88;;;14.23;100.00
8320;BME280;4197;42.130;24.746;2023-06-05T02:57:43;99988.44;;;14.18;100.00
8320;BME280;4197;42.130;24.746;2023-06-05T03:00:11;99992.34;;;14.17;100.00
8320;BME280;4197;42.130;24.746;2023-06-05T03:02:42;99998.72;;;14.24;100.00
8320;BME280;4197;42.130;24.746;2023-06-05T03:05:17;100003.34;;;14.24;100.00
8320;BME280;4197;42.130;24.746;2023-06-05T03:07:52;99997.13;;;14.23;100.00
8320;BME280;4197;42.130;24.746;2023-06-05T03:10:21;99996.34;;;14.23;100.00
8320;BME280;4197;42.130;24.746;2023-06-05T03:12:49;99990.94;;;14.26;100.00
8320;BME280;4197;42.130;24.746;2023-06-05T03:15:17;99988.16;;;14.23;100.00
8320;BME280;4197;42.130;24.746;2023-06-05T03:17:45;99987.06;;;14.27;100.00
8320;BME280;4197;42.130;24.746;2023-06-05T03:20:18;99984.38;;;14.31;100.00
8320;BME280;4197;42.130;24.746;2023-06-05T03:22:46;99990.19;;;14.29;100.00
8320;BME280;4197;42.130;24.746;2023-06-05T03:25:15;99980.13;;;14.34;100.00
8320;BME280;4197;42.130;24.746;2023-06-05T03:27:43;99979.66;;;14.28;100.00
8320;BME280;4197;42.130;24.746;2023-06-05T03:30:13;99975.50;;;14.38;100.00
8320;BME280;4197;42.130;24.746;2023-06-05T03:32:43;99971.00;;;14.49;100.00
8320;BME280;4197;42.130;24.746;2023-06-05T03:35:12;99974.31;;;14.58;100.00
8320;BME280;4197;42.130;24.746;2023-06-05T03:37:41;99969.00;;;14.69;100.00
8320;BME280;4197;42.130;24.746;2023-06-05T03:40:10;99972.06;;;14.94;100.00
8320;BME280;4197;42.130;24.746;2023-06-05T03:42:39;99959.41;;;15.12;100.00
8320;BME280;4197;42.130;24.746;2023-06-05T03:45:08;99961.16;;;15.28;100.00
8320;BME280;4197;42.130;24.746;2023-06-05T03:47:36;99964.38;;;15.37;100.00
8320;BME280;4197;42.130;24.746;2023-06-05T03:50:05;99966.50;;;15.54;100.00
8320;BME280;4197;42.130;24.746;2023-06-05T03:52:33;99967.94;;;15.75;100.00
8320;BME280;4197;42.130;24.746;2023-06-05T03:55:07;99972.69;;;15.85;100.00
8320;BME280;4197;42.130;24.746;2023-06-05T03:57:36;99968.41;;;15.84;100.00
8320;BME280;4197;42.130;24.746;2023-06-05T04:00:06;99978.69;;;15.98;100.00
8320;BME280;4197;42.130;24.746;2023-06-05T04:02:37;99979.84;;;15.97;100.00
8320;BME280;4197;42.130;24.746;2023-06-05T04:05:06;99975.16;;;15.97;100.00
8320;BME280;4197;42.130;24.746;2023-06-05T04:07:38;99971.25;;;15.98;100.00
8320;BME280;4197;42.130;24.746;2023-06-05T04:10:09;99966.50;;;15.88;100.00
8320;BME280;4197;42.130;24.746;2023-06-05T04:12:38;99968.44;;;15.88;100.00
8320;BME280;4197;42.130;24.746;2023-06-05T04:15:07;99975.50;;;15.92;100.00
8320;BME280;4197;42.130;24.746;2023-06-05T04:17:37;99974.84;;;16.06;100.00
8320;BME280;4197;42.130;24.746;2023-06-05T04:20:07;99973.59;;;15.96;100.00
8320;BME280;4197;42.130;24.746;2023-06-05T04:22:40;99976.72;;;15.98;100.00
8320;BME280;4197;42.130;24.746;2023-06-05T04:25:10;99971.88;;;15.81;100.00
8320;BME280;4197;42.130;24.746;2023-06-05T04:27:40;99975.38;;;15.78;100.00
8320;BME280;4197;42.130;24.746;2023-06-05T04:30:11;99973.50;;;15.86;100.00
8320;BME280;4197;42.130;24.746;2023-06-05T04:32:39;99970.47;;;15.94;100.00
8320;BME280;4197;42.130;24.746;2023-06-05T04:35:09;99976.38;;;16.03;100.00
8320;BME280;4197;42.130;24.746;2023-06-05T04:37:38;99991.59;;;15.97;100.00
8320;BME280;4197;42.130;24.746;2023-06-05T04:40:07;99988.72;;;16.31;100.00
8320;BME280;4197;42.130;24.746;2023-06-05T04:42:38;99996.06;;;16.71;100.00
8320;BME280;4197;42.130;24.746;2023-06-05T04:45:07;99997.72;;;16.80;100.00
8320;BME280;4197;42.130;24.746;2023-06-05T04:47:36;99995.50;;;16.51;100.00
8320;BME280;4197;42.130;24.746;2023-06-05T04:50:05;99998.66;;;16.54;100.00
8320;BME280;4197;42.130;24.746;2023-06-05T04:52:34;100002.25;;;16.61;100.00
8320;BME280;4197;42.130;24.746;2023-06-05T04:55:03;100001.41;;;16.54;100.00
8320;BME280;4197;42.130;24.746;2023-06-05T04:57:32;99998.22;;;16.44;100.00
8320;BME280;4197;42.130;24.746;2023-06-05T05:00:01;100004.19;;;16.61;100.00
8320;BME280;4197;42.130;24.746;2023-06-05T05:02:35;100015.00;;;16.91;100.00
8320;BME280;4197;42.130;24.746;2023-06-05T05:05:03;100018.69;;;17.27;100.00
8320;BME280;4197;42.130;24.746;2023-06-05T05:07:32;100020.28;;;17.35;100.00
8320;BME280;4197;42.130;24.746;2023-06-05T05:10:02;100025.09;;;17.67;100.00
8320;BME280;4197;42.130;24.746;2023-06-05T05:12:30;100027.41;;;17.54;100.00
8320;BME280;4197;42.130;24.746;2023-06-05T05:14:58;100028.22;;;17.66;100.00
8320;BME280;4197;42.130;24.746;2023-06-05T05:17:29;100023.94;;;17.68;100.00
8320;BME280;4197;42.130;24.746;2023-06-05T05:19:57;100027.81;;;17.71;100.00
8320;BME280;4197;42.130;24.746;2023-06-05T05:22:28;100030.56;;;17.60;100.00
8320;BME280;4197;42.130;24.746;2023-06-05T05:24:57;100039.50;;;17.43;100.00
8320;BME280;4197;42.130;24.746;2023-06-05T05:27:26;100037.88;;;17.27;100.00
8320;BME280;4197;42.130;24.746;2023-06-05T05:29:55;100033.06;;;17.03;100.00
8320;BME280;4197;42.130;24.746;2023-06-05T05:32:23;100027.44;;;16.85;100.00
8320;BME280;4197;42.130;24.746;2023-06-05T05:34:56;100036.44;;;16.82;100.00
8320;BME280;4197;42.130;24.746;2023-06-05T05:37:25;100034.59;;;16.97;100.00
8320;BME280;4197;42.130;24.746;2023-06-05T05:39:53;100040.16;;;17.14;100.00
8320;BME280;4197;42.130;24.746;2023-06-05T05:42:22;100041.09;;;17.47;100.00
8320;BME280;4197;42.130;24.746;2023-06-05T05:44:50;100046.09;;;17.31;100.00
8320;BME280;4197;42.130;24.746;2023-06-05T05:47:24;100045.75;;;17.39;100.00
8320;BME280;4197;42.130;24.746;2023-06-05T05:49:57;100053.66;;;17.52;100.00
8320;BME280;4197;42.130;24.746;2023-06-05T05:52:28;100047.44;;;17.69;100.00
8320;BME280;4197;42.130;24.746;2023-06-05T05:54:58;100056.56;;;18.05;100.00
8320;BME280;4197;42.130;24.746;2023-06-05T05:57:27;100058.13;;;18.10;100.00
8320;BME280;4197;42.130;24.746;2023-06-05T05:59:56;100062.47;;;18.47;100.00
8320;BME280;4197;42.130;24.746;2023-06-05T06:02:24;100047.16;;;18.57;100.00
8320;BME280;4197;42.130;24.746;2023-06-05T06:04:52;100052.28;;;18.58;100.00
8320;BME280;4197;42.130;24.746;2023-06-05T06:07:25;100044.41;;;18.92;100.00
8320;BME280;4197;42.130;24.746;2023-06-05T06:09:54;100047.13;;;19.10;100.00
8320;BME280;4197;42.130;24.746;2023-06-05T06:12:22;100049.81;;;19.25;100.00
8320;BME280;4197;42.130;24.746;2023-06-05T06:14:51;100046.28;;;19.24;100.00
8320;BME280;4197;42.130;24.746;2023-06-05T06:17:19;100046.28;;;19.24;100.00
8320;BME280;4197;42.130;24.746;2023-06-05T06:19:49;100044.34;;;19.21;100.00
8320;BME280;4197;42.130;24.746;2023-06-05T06:22:20;100048.66;;;19.19;100.00
8320;BME280;4197;42.130;24.746;2023-06-05T06:24:50;100037.25;;;19.20;100.00
8320;BME280;4197;42.130;24.746;2023-06-05T06:27:19;100035.59;;;19.44;100.00
8320;BME280;4197;42.130;24.746;2023-06-05T06:30:01;100041.41;;;19.68;100.00
8320;BME280;4197;42.130;24.746;2023-06-05T06:32:30;100038.59;;;19.78;100.00
8320;BME280;4197;42.130;24.746;2023-06-05T06:34:58;100038.88;;;19.95;100.00
8320;BME280;4197;42.130;24.746;2023-06-05T06:37:27;100039.66;;;19.99;100.00
8320;BME280;4197;42.130;24.746;2023-06-05T06:39:56;100048.13;;;20.22;100.00
8320;BME280;4197;42.130;24.746;2023-06-05T06:42:25;100040.50;;;20.44;100.00
8320;BME280;4197;42.130;24.746;2023-06-05T06:44:54;100042.84;;;20.42;100.00
8320;BME280;4197;42.130;24.746;2023-06-05T06:47:25;100046.03;;;20.41;100.00
8320;BME280;4197;42.130;24.746;2023-06-05T06:49:53;100043.09;;;20.66;100.00
8320;BME280;4197;42.130;24.746;2023-06-05T06:52:21;100047.03;;;20.65;100.00
8320;BME280;4197;42.130;24.746;2023-06-05T06:54:57;100037.19;;;20.67;100.00
8320;BME280;4197;42.130;24.746;2023-06-05T06:57:40;100044.59;;;20.74;100.00
8320;BME280;4197;42.130;24.746;2023-06-05T07:00:09;100039.38;;;20.83;100.00
8320;BME280;4197;42.130;24.746;2023-06-05T07:02:40;100038.91;;;21.26;100.00
8320;BME280;4197;42.130;24.746;2023-06-05T07:05:08;100036.44;;;21.35;100.00
8320;BME280;4197;42.130;24.746;2023-06-05T07:07:37;100038.16;;;21.22;100.00
8320;BME280;4197;42.130;24.746;2023-06-05T07:10:07;100041.25;;;21.28;100.00
8320;BME280;4197;42.130;24.746;2023-06-05T07:12:35;100040.69;;;21.44;100.00
8320;BME280;4197;42.130;24.746;2023-06-05T07:15:04;100031.06;;;21.59;100.00
8320;BME280;4197;42.130;24.746;2023-06-05T07:17:33;100027.97;;;21.80;100.00
8320;BME280;4197;42.130;24.746;2023-06-05T07:20:02;100021.78;;;22.00;100.00
8320;BME280;4197;42.130;24.746;2023-06-05T07:22:32;100030.13;;;21.96;100.00
8320;BME280;4197;42.130;24.746;2023-06-05T07:25:01;100035.59;;;22.00;100.00
8320;BME280;4197;42.130;24.746;2023-06-05T07:27:32;100027.59;;;22.05;100.00
8320;BME280;4197;42.130;24.746;2023-06-05T07:30:00;100032.63;;;22.14;100.00
8320;BME280;4197;42.130;24.746;2023-06-05T07:32:28;100025.16;;;22.11;100.00
8320;BME280;4197;42.130;24.746;2023-06-05T07:34:57;100033.88;;;22.10;100.00
8320;BME280;4197;42.130;24.746;2023-06-05T07:37:25;100030.59;;;22.18;100.00
8320;BME280;4197;42.130;24.746;2023-06-05T07:39:53;100037.50;;;22.30;100.00
8320;BME280;4197;42.130;24.746;2023-06-05T07:42:22;100038.69;;;22.56;100.00
8320;BME280;4197;42.130;24.746;2023-06-05T07:44:51;100039.00;;;22.58;100.00
8320;BME280;4197;42.130;24.746;2023-06-05T07:47:20;100042.34;;;22.73;100.00
8320;BME280;4197;42.130;24.746;2023-06-05T07:49:56;100038.78;;;22.73;100.00
8320;BME280;4197;42.130;24.746;2023-06-05T07:52:26;100040.22;;;22.57;100.00
8320;BME280;4197;42.130;24.746;2023-06-05T07:54:54;100040.47;;;22.66;100.00
8320;BME280;4197;42.130;24.746;2023-06-05T07:57:23;100034.81;;;22.74;100.00
8320;BME280;4197;42.130;24.746;2023-06-05T07:59:53;100032.53;;;22.68;100.00
8320;BME280;4197;42.130;24.746;2023-06-05T08:02:21;100027.06;;;22.41;100.00
8320;BME280;4197;42.130;24.746;2023-06-05T08:04:50;100028.44;;;22.77;100.00
8320;BME280;4197;42.130;24.746;2023-06-05T08:07:19;100021.50;;;22.88;100.00
8320;BME280;4197;42.130;24.746;2023-06-05T08:09:47;100029.56;;;23.23;100.00
8320;BME280;4197;42.130;24.746;2023-06-05T08:12:15;100026.19;;;23.51;100.00
8320;BME280;4197;42.130;24.746;2023-06-05T08:14:43;100022.66;;;23.51;100.00
8320;BME280;4197;42.130;24.746;2023-06-05T08:17:13;100016.72;;;23.69;100.00
8320;BME280;4197;42.130;24.746;2023-06-05T08:19:42;100013.06;;;23.75;100.00
8320;BME280;4197;42.130;24.746;2023-06-05T08:22:10;100010.81;;;23.10;100.00
8320;BME280;4197;42.130;24.746;2023-06-05T08:24:39;100009.78;;;22.81;100.00
8320;BME280;4197;42.130;24.746;2023-06-05T08:27:07;100009.53;;;22.52;100.00
8320;BME280;4197;42.130;24.746;2023-06-05T08:29:35;100004.84;;;22.48;100.00
8320;BME280;4197;42.130;24.746;2023-06-05T08:32:05;100006.22;;;22.60;100.00
8320;BME280;4197;42.130;24.746;2023-06-05T08:34:34;100007.66;;;22.21;100.00
8320;BME280;4197;42.130;24.746;2023-06-05T08:37:03;100001.13;;;22.08;100.00
8320;BME280;4197;42.130;24.746;2023-06-05T08:39:32;99999.28;;;22.01;100.00
8320;BME280;4197;42.130;24.746;2023-06-05T08:42:00;99992.00;;;22.11;100.00
8320;BME280;4197;42.130;24.746;2023-06-05T08:44:30;99996.44;;;22.32;100.00
8320;BME280;4197;42.130;24.746;2023-06-05T08:47:01;99989.06;;;22.25;100.00
8320;BME280;4197;42.130;24.746;2023-06-05T08:49:29;99982.53;;;22.12;100.00
8320;BME280;4197;42.130;24.746;2023-06-05T08:52:06;99983.00;;;22.07;100.00
8320;BME280;4197;42.130;24.746;2023-06-05T08:54:37;99984.09;;;22.13;100.00
8320;BME280;4197;42.130;24.746;2023-06-05T08:57:07;99980.66;;;22.33;100.00
8320;BME280;4197;42.130;24.746;2023-06-05T08:59:36;99984.59;;;22.55;100.00
8320;BME280;4197;42.130;24.746;2023-06-05T09:02:05;99985.06;;;22.50;100.00
8320;BME280;4197;42.130;24.746;2023-06-05T09:04:33;99988.41;;;22.61;100.00
8320;BME280;4197;42.130;24.746;2023-06-05T09:07:01;99988.22;;;22.72;100.00
8320;BME280;4197;42.130;24.746;2023-06-05T09:09:33;99981.19;;;23.11;100.00
8320;BME280;4197;42.130;24.746;2023-06-05T09:12:02;99981.19;;;23.31;100.00
8320;BME280;4197;42.130;24.746;2023-06-05T09:14:31;99976.47;;;23.28;100.00
8320;BME280;4197;42.130;24.746;2023-06-05T09:17:00;99976.91;;;23.26;100.00
8320;BME280;4197;42.130;24.746;2023-06-05T09:19:36;99971.97;;;23.18;100.00
8320;BME280;4197;42.130;24.746;2023-06-05T09:22:06;99970.69;;;23.02;100.00
8320;BME280;4197;42.130;24.746;2023-06-05T09:24:39;99971.69;;;23.12;100.00
8320;BME280;4197;42.130;24.746;2023-06-05T09:27:09;99975.97;;;22.93;100.00
8320;BME280;4197;42.130;24.746;2023-06-05T09:29:40;99972.47;;;22.49;100.00
8320;BME280;4197;42.130;24.746;2023-06-05T09:32:17;99966.75;;;22.60;100.00
8320;BME280;4197;42.130;24.746;2023-06-05T09:34:54;99960.47;;;22.99;100.00
8320;BME280;4197;42.130;24.746;2023-06-05T09:37:33;99957.75;;;23.35;100.00
8320;BME280;4197;42.130;24.746;2023-06-05T09:40:04;99958.44;;;23.76;100.00
8320;BME280;4197;42.130;24.746;2023-06-05T09:42:34;99963.63;;;24.23;100.00
8320;BME280;4197;42.130;24.746;2023-06-05T09:45:04;99959.03;;;24.49;100.00
8320;BME280;4197;42.130;24.746;2023-06-05T09:47:32;99964.84;;;24.22;100.00
8320;BME280;4197;42.130;24.746;2023-06-05T09:50:22;99963.47;;;23.97;96.77
8320;BME280;4197;42.130;24.746;2023-06-05T09:52:52;99951.31;;;23.58;96.14
8320;BME280;4197;42.130;24.746;2023-06-05T09:55:25;99945.38;;;23.40;94.83
8320;BME280;4197;42.130;24.746;2023-06-05T09:57:55;99944.00;;;23.32;98.08
8320;BME280;4197;42.130;24.746;2023-06-05T10:00:25;99939.84;;;23.76;97.03
8320;BME280;4197;42.130;24.746;2023-06-05T10:02:55;99935.34;;;23.99;88.33
8320;BME280;4197;42.130;24.746;2023-06-05T10:05:24;99943.13;;;23.88;83.22
8320;BME280;4197;42.130;24.746;2023-06-05T10:07:53;99932.16;;;24.00;78.46
8320;BME280;4197;42.130;24.746;2023-06-05T10:10:23;99926.03;;;24.22;78.47
8320;BME280;4197;42.130;24.746;2023-06-05T10:12:52;99933.16;;;24.23;72.07
8320;BME280;4197;42.130;24.746;2023-06-05T10:15:24;99925.88;;;24.13;71.03
8320;BME280;4197;42.130;24.746;2023-06-05T10:17:52;99924.50;;;23.88;71.75
8320;BME280;4197;42.130;24.746;2023-06-05T10:20:22;99926.59;;;24.00;73.04
8320;BME280;4197;42.130;24.746;2023-06-05T10:22:51;99924.81;;;24.39;70.85
8320;BME280;4197;42.130;24.746;2023-06-05T10:25:20;99925.34;;;24.34;68.06
8320;BME280;4197;42.130;24.746;2023-06-05T10:28:12;99924.72;;;24.43;65.48
8320;BME280;4197;42.130;24.746;2023-06-05T10:31:14;99918.28;;;24.62;66.80
8320;BME280;4197;42.130;24.746;2023-06-05T10:33:57;99915.72;;;25.10;64.32
8320;BME280;4197;42.130;24.746;2023-06-05T10:36:41;99907.00;;;25.37;63.95
8320;BME280;4197;42.130;24.746;2023-06-05T10:39:14;99906.31;;;25.46;61.44
8320;BME280;4197;42.130;24.746;2023-06-05T10:41:44;99912.16;;;25.09;60.75
8320;BME280;4197;42.130;24.746;2023-06-05T10:44:14;99923.44;;;24.89;61.50
8320;BME280;4197;42.130;24.746;2023-06-05T10:46:43;99898.25;;;24.97;61.84
8320;BME280;4197;42.130;24.746;2023-06-05T10:49:15;99896.28;;;25.10;60.26
8320;BME280;4197;42.130;24.746;2023-06-05T10:51:45;99895.22;;;25.20;59.71
8320;BME280;4197;42.130;24.746;2023-06-05T10:54:15;99903.91;;;24.93;59.96
8320;BME280;4197;42.130;24.746;2023-06-05T10:57:05;99889.28;;;24.51;62.28
8320;BME280;4197;42.130;24.746;2023-06-05T10:59:37;99890.66;;;24.42;62.61
8320;BME280;4197;42.130;24.746;2023-06-05T11:02:23;99889.28;;;24.92;62.28
8320;BME280;4197;42.130;24.746;2023-06-05T11:05:09;99889.22;;;24.67;61.28
8320;BME280;4197;42.130;24.746;2023-06-05T11:07:41;99878.97;;;24.51;63.39
8320;BME280;4197;42.130;24.746;2023-06-05T11:10:14;99881.53;;;25.13;59.55
8320;BME280;4197;42.130;24.746;2023-06-05T11:12:59;99874.31;;;25.03;60.31
8320;BME280;4197;42.130;24.746;2023-06-05T11:15:42;99867.84;;;24.93;59.88
8320;BME280;4197;42.130;24.746;2023-06-05T11:18:33;99879.34;;;24.66;61.38
8320;BME280;4197;42.130;24.746;2023-06-05T11:21:03;99872.53;;;24.83;62.58
8320;BME280;4197;42.130;24.746;2023-06-05T11:23:33;99874.75;;;25.01;60.55
8320;BME280;4197;42.130;24.746;2023-06-05T11:29:10;99865.94;;;24.64;60.89
8320;BME280;4197;42.130;24.746;2023-06-05T11:31:43;99864.66;;;24.95;59.66
8320;BME280;4197;42.130;24.746;2023-06-05T11:34:12;99862.13;;;25.00;58.53
8320;BME280;4197;42.130;24.746;2023-06-05T11:36:41;99861.69;;;25.27;58.63
8320;BME280;4197;42.130;24.746;2023-06-05T11:39:13;99876.69;;;25.43;57.19
8320;BME280;4197;42.130;24.746;2023-06-05T11:41:45;99871.59;;;25.28;57.94
8320;BME280;4197;42.130;24.746;2023-06-05T11:44:14;99861.81;;;25.24;57.09
8320;BME280;4197;42.130;24.746;2023-06-05T11:46:44;99864.69;;;25.33;58.04
8320;BME280;4197;42.130;24.746;2023-06-05T11:49:26;99845.03;;;25.27;56.84
8320;BME280;4197;42.130;24.746;2023-06-05T11:51:55;99840.38;;;25.50;56.23
8320;BME280;4197;42.130;24.746;2023-06-05T11:54:26;99851.84;;;25.74;54.83
8320;BME280;4197;42.130;24.746;2023-06-05T11:57:00;99858.56;;;25.64;51.86
8320;BME280;4197;42.130;24.746;2023-06-05T11:59:36;99848.81;;;25.33;53.77
8320;BME280;4197;42.130;24.746;2023-06-05T12:02:06;99850.78;;;25.58;51.64
8320;BME280;4197;42.130;24.746;2023-06-05T12:04:35;99847.47;;;25.64;52.26
8320;BME280;4197;42.130;24.746;2023-06-05T12:07:07;99843.78;;;25.67;51.20
8320;BME280;4197;42.130;24.746;2023-06-05T12:09:35;99842.53;;;25.80;52.59
8320;BME280;4197;42.130;24.746;2023-06-05T12:12:07;99848.31;;;25.60;50.08
8320;BME280;4197;42.130;24.746;2023-06-05T12:14:38;99840.38;;;25.37;51.84
8320;BME280;4197;42.130;24.746;2023-06-05T12:17:12;99845.75;;;25.66;51.92
8320;BME280;4197;42.130;24.746;2023-06-05T12:19:41;99837.28;;;25.82;49.74
8320;BME280;4197;42.130;24.746;2023-06-05T12:22:10;99833.16;;;26.00;51.05
8320;BME280;4197;42.130;24.746;2023-06-05T12:24:39;99840.31;;;26.10;48.80
8320;BME280;4197;42.130;24.746;2023-06-05T12:27:09;99842.41;;;25.97;48.51
8320;BME280;4197;42.130;24.746;2023-06-05T12:29:39;99828.78;;;25.64;49.57
8320;BME280;4197;42.130;24.746;2023-06-05T12:32:23;99833.94;;;25.27;51.21
8320;BME280;4197;42.130;24.746;2023-06-05T12:34:52;99835.25;;;25.48;49.21
8320;BME280;4197;42.130;24.746;2023-06-05T12:37:30;99840.16;;;25.44;49.77
8320;BME280;4197;42.130;24.746;2023-06-05T12:40:06;99828.94;;;25.35;50.53
8320;BME280;4197;42.130;24.746;2023-06-05T12:42:39;99828.38;;;25.40;50.06
8320;BME280;4197;42.130;24.746;2023-06-05T12:45:08;99832.31;;;25.77;50.22
8320;BME280;4197;42.130;24.746;2023-06-05T12:47:39;99824.50;;;25.98;48.60
8320;BME280;4197;42.130;24.746;2023-06-05T12:50:10;99821.84;;;25.94;47.87
8320;BME280;4197;42.130;24.746;2023-06-05T12:52:40;99821.19;;;25.90;48.44
8320;BME280;4197;42.130;24.746;2023-06-05T12:55:11;99819.84;;;26.17;48.71
8320;BME280;4197;42.130;24.746;2023-06-05T12:57:40;99810.03;;;26.03;48.27
8320;BME280;4197;42.130;24.746;2023-06-05T13:00:09;99804.25;;;25.97;48.34
8320;BME280;4197;42.130;24.746;2023-06-05T13:02:44;99807.88;;;26.07;49.38
8320;BME280;4197;42.130;24.746;2023-06-05T13:05:22;99813.81;;;25.96;47.58
8320;BME280;4197;42.130;24.746;2023-06-05T13:07:51;99813.91;;;25.58;48.39
8320;BME280;4197;42.130;24.746;2023-06-05T13:10:25;99815.69;;;25.52;48.45
8320;BME280;4197;42.130;24.746;2023-06-05T13:12:54;99818.88;;;25.63;47.99
8320;BME280;4197;42.130;24.746;2023-06-05T13:15:22;99816.25;;;25.47;47.85
8320;BME280;4197;42.130;24.746;2023-06-05T13:17:53;99808.72;;;25.34;48.13
8320;BME280;4197;42.130;24.746;2023-06-05T13:20:22;99805.28;;;25.43;48.42